Glen Burnie, Maryland
Current Conditions -  °F | °C
As of 5:54 PM on Friday 19 Dec 2014 (Local Time) from KBWI Reporting Station
Few Clouds Few Clouds  
Wind Chill: -1°   Ceiling: Unl
Heat Index:   Visibility: 10mi
Dew Point: -5°   Wind: 7mph
Humidity: 59%   Direction: 300°WNW
Pressure: 30.16"   Gusts: NA
Location:  39.16°N, 76.62°W
Report Text: KBWI 192254Z 30006KT 10SM FEW039 02/M05 A3016 RMK AO2 SLP215 T00221050
Loading
Personal Weather Stations






























Interactive Weather Map New forecast layout! Learn more

10-Day Weather Forecast

Advertisements
Track Severe Weather on mobile